NORTHEAST SUFFOLK  -  Rip Current Statement Rip Current Statement        NORTHERN NASSAU  -  Rip Current Statement Rip Current Statement        NORTHERN QUEENS  -  Rip Current Statement Rip Current Statement     Air Quality Alert Air Quality Alert        NORTHWEST SUFFOLK  -  Rip Current Statement Rip Current Statement        SOUTHEAST SUFFOLK  -  Rip Current Statement Rip Current Statement        SOUTHERN NASSAU  -  Rip Current Statement Rip Current Statement        SOUTHERN QUEENS  -  Rip Current Statement Rip Current Statement     Air Quality Alert Air Quality Alert        SOUTHWEST SUFFOLK  -  Rip Current Statement Rip Current Statement      

Active alerts

Northern Queens
  Details for Northern Queens Rip Current Statement  +1 additional alert
Southern Queens
  Details for Southern Queens Rip Current Statement  +1 additional alert
Northern Nassau
  Details for Northern Nassau Rip Current Statement
Southern Nassau
  Details for Southern Nassau Rip Current Statement
Northwest Suffolk
  Details for Northwest Suffolk Rip Current Statement
Southwest Suffolk
  Details for Southwest Suffolk Rip Current Statement
Northeast Suffolk
  Details for Northeast Suffolk Rip Current Statement
Southeast Suffolk
  Details for Southeast Suffolk Rip Current Statement


WXM80 ListenWXM80 Stop

You find our weather info also at:

UK Metoffice

WeatherCloud

Weather Underground

Northeastern Weather Network

AWEKAS

Citizen Weather Observer Program (CWOP)

HAMweather, WeatherForYou, PWS Weather


Weather Underground History page Text

Daily Summary for June 14, 2016 Units:  English    Metric   Both
« Previous Day
Next Day »
Daily Weekly Monthly Yearly Custom
  High: Low: Average:
Temperature: 83.9 °F 57.9 °F 69.1 °F
Dew Point: 58.6 °F 50.3 °F 53.3 °F
Humidity: 82 % 33 % 60 %
Wind Speed: 7.1 mph 0.0 mph 1.9 mph
Wind Gust: 14.0 mph - -
Wind:- - West
Pressure: 29.93 in 29.80 in -
Precipitation: 0.00 in    
Historical Graphs
 
 
Tabular Data for June 14, 2016
Time Temperature Dew Point Pressure Wind Wind Speed Wind Gust Humidity Rainfall Rate (Hourly)
00:02 63.5 °F 55.4 °F 29.80 in WNW 0.3 mph   75 % 0.00 in
00:08 63.4 °F 55.3 °F 29.80 in WNW 0.3 mph 1.2 mph 75 % 0.00 in
00:13 63.4 °F 55.0 °F 29.80 in Calm     74 % 0.00 in
00:18 63.3 °F 54.9 °F 29.80 in Calm     74 % 0.00 in
00:23 63.2 °F 54.8 °F 29.80 in WNW 0.1 mph 1.2 mph 74 % 0.00 in
00:28 63.1 °F 54.7 °F 29.80 in Calm     74 % 0.00 in
00:33 63.0 °F 54.9 °F 29.80 in WNW 0.3 mph 1.2 mph 75 % 0.00 in
00:38 63.0 °F 55.3 °F 29.80 in Calm   1.2 mph 76 % 0.00 in
00:43 62.8 °F 55.1 °F 29.80 in WNW 0.9 mph 2.0 mph 76 % 0.00 in
00:48 62.7 °F 55.4 °F 29.80 in WNW 0.4 mph 2.3 mph 77 % 0.00 in
00:53 62.6 °F 55.3 °F 29.81 in WNW 0.5 mph 2.3 mph 77 % 0.00 in
00:59 62.5 °F 55.5 °F 29.81 in NW 0.8 mph 1.2 mph 78 % 0.00 in
01:04 62.4 °F 55.4 °F 29.81 in WNW 0.2 mph 3.5 mph 78 % 0.00 in
01:09 62.3 °F 55.0 °F 29.81 in WNW 0.4 mph 2.3 mph 77 % 0.00 in
01:14 62.2 °F 54.9 °F 29.81 in NNE 1.5 mph 3.5 mph 77 % 0.00 in
01:19 62.2 °F 54.9 °F 29.81 in North 0.6 mph 2.0 mph 77 % 0.00 in
01:24 62.1 °F 55.2 °F 29.81 in North 0.6 mph 2.0 mph 78 % 0.00 in
01:29 62.0 °F 55.1 °F 29.81 in North 0.4 mph 2.3 mph 78 % 0.00 in
01:34 61.8 °F 54.2 °F 29.81 in NNE 1.9 mph 3.5 mph 76 % 0.00 in
01:39 61.6 °F 53.6 °F 29.81 in WNW 1.4 mph 3.5 mph 75 % 0.00 in
01:44 61.5 °F 53.1 °F 29.81 in West 1.5 mph 3.5 mph 74 % 0.00 in
01:50 61.3 °F 52.9 °F 29.81 in NW 0.6 mph 3.5 mph 74 % 0.00 in
01:55 61.3 °F 52.9 °F 29.81 in West 2.4 mph 4.6 mph 74 % 0.00 in
02:00 61.2 °F 52.8 °F 29.81 in NW 1.8 mph 6.9 mph 74 % 0.00 in
02:05 61.1 °F 52.7 °F 29.81 in West 0.8 mph 2.3 mph 74 % 0.00 in
02:10 61.0 °F 52.7 °F 29.81 in West 1.7 mph 4.0 mph 74 % 0.00 in
02:15 60.9 °F 52.6 °F 29.81 in Calm     74 % 0.00 in
02:20 60.7 °F 52.4 °F 29.80 in WNW 1.5 mph 3.5 mph 74 % 0.00 in
02:25 60.7 °F 52.4 °F 29.80 in West 1.0 mph 2.3 mph 74 % 0.00 in
02:30 60.5 °F 52.2 °F 29.81 in Calm   1.2 mph 74 % 0.00 in
02:36 60.4 °F 52.1 °F 29.81 in Calm   1.2 mph 74 % 0.00 in
02:41 60.4 °F 52.4 °F 29.81 in Calm   1.2 mph 75 % 0.00 in
02:46 60.3 °F 52.3 °F 29.81 in WNW 0.6 mph 2.3 mph 75 % 0.00 in
02:51 60.2 °F 52.2 °F 29.81 in WNW 0.3 mph 2.3 mph 75 % 0.00 in
02:56 60.0 °F 52.4 °F 29.81 in Calm     76 % 0.00 in
03:01 60.0 °F 52.8 °F 29.81 in West 0.6 mph 4.6 mph 77 % 0.00 in
03:06 59.8 °F 52.9 °F 29.81 in WNW 1.5 mph 4.6 mph 78 % 0.00 in
03:11 59.7 °F 52.5 °F 29.80 in WNW 2.2 mph 6.9 mph 77 % 0.00 in
03:16 59.6 °F 52.4 °F 29.81 in West 2.0 mph 3.5 mph 77 % 0.00 in
03:21 59.6 °F 52.4 °F 29.81 in West 2.3 mph 6.9 mph 77 % 0.00 in
03:27 59.5 °F 51.9 °F 29.81 in WNW 2.7 mph 6.0 mph 76 % 0.00 in
03:32 59.5 °F 52.3 °F 29.82 in WNW 0.9 mph 4.6 mph 77 % 0.00 in
03:37 59.5 °F 52.3 °F 29.82 in Calm   2.3 mph 77 % 0.00 in
03:42 59.5 °F 52.3 °F 29.82 in West 0.9 mph 3.5 mph 77 % 0.00 in
03:47 59.5 °F 52.3 °F 29.82 in WNW 0.3 mph 3.5 mph 77 % 0.00 in
03:52 59.4 °F 52.5 °F 29.82 in WNW 0.5 mph 4.6 mph 78 % 0.00 in
03:57 59.4 °F 52.5 °F 29.82 in North 0.3 mph 3.5 mph 78 % 0.00 in
04:02 59.3 °F 52.8 °F 29.82 in West 0.4 mph 2.0 mph 79 % 0.00 in
04:07 59.3 °F 52.8 °F 29.82 in West 0.4 mph 2.3 mph 79 % 0.00 in
04:12 59.1 °F 52.6 °F 29.83 in WNW 2.6 mph 4.6 mph 79 % 0.00 in
04:18 59.0 °F 52.5 °F 29.83 in WNW 1.3 mph 6.9 mph 79 % 0.00 in
04:23 59.0 °F 52.5 °F 29.83 in West 3.0 mph 6.9 mph 79 % 0.00 in
04:28 58.9 °F 52.4 °F 29.83 in WNW 0.8 mph 6.9 mph 79 % 0.00 in
04:33 58.8 °F 52.3 °F 29.83 in West 2.6 mph 7.0 mph 79 % 0.00 in
04:38 58.7 °F 52.5 °F 29.84 in NW 0.3 mph 3.0 mph 80 % 0.00 in
04:43 58.6 °F 52.4 °F 29.84 in NNE 2.2 mph 10.4 mph 80 % 0.00 in
04:48 58.5 °F 52.4 °F 29.85 in WNW 2.2 mph 6.9 mph 80 % 0.00 in
04:53 58.4 °F 52.3 °F 29.85 in North 3.2 mph 8.1 mph 80 % 0.00 in
04:58 58.3 °F 52.5 °F 29.85 in WNW 3.0 mph 6.9 mph 81 % 0.00 in
05:03 58.2 °F 52.4 °F 29.85 in NW 5.6 mph 10.0 mph 81 % 0.00 in
05:09 58.2 °F 52.7 °F 29.85 in North 4.1 mph 9.2 mph 82 % 0.00 in
05:14 58.2 °F 52.4 °F 29.85 in NW 4.5 mph 14.0 mph 81 % 0.00 in
05:19 58.1 °F 52.3 °F 29.85 in NNW 3.6 mph 8.1 mph 81 % 0.00 in
05:24 58.1 °F 52.3 °F 29.86 in WNW 5.0 mph 10.4 mph 81 % 0.00 in
05:29 58.1 °F 52.3 °F 29.86 in NW 4.6 mph 11.5 mph 81 % 0.00 in
05:34 58.1 °F 52.0 °F 29.86 in NNW 2.8 mph 13.8 mph 80 % 0.00 in
05:44 58.0 °F 51.9 °F 29.87 in North 2.1 mph 3.5 mph 80 % 0.00 in
05:49 58.0 °F 51.5 °F 29.88 in WNW 3.5 mph 9.2 mph 79 % 0.00 in
05:54 57.9 °F 51.4 °F 29.88 in WNW 2.4 mph 5.0 mph 79 % 0.00 in
05:59 58.0 °F 51.5 °F 29.88 in NW 3.5 mph 8.1 mph 79 % 0.00 in
06:04 58.0 °F 51.5 °F 29.88 in NW 1.5 mph 6.0 mph 79 % 0.00 in
06:09 58.0 °F 51.2 °F 29.88 in West 1.5 mph 5.8 mph 78 % 0.00 in
06:14 58.0 °F 51.2 °F 29.88 in NNW 2.7 mph 3.5 mph 78 % 0.00 in
06:19 58.1 °F 51.3 °F 29.88 in North 1.8 mph 5.8 mph 78 % 0.00 in
06:25 58.2 °F 51.7 °F 29.89 in NNW 1.7 mph 6.0 mph 79 % 0.00 in
06:30 58.4 °F 51.6 °F 29.89 in NNE 2.3 mph 6.9 mph 78 % 0.00 in
06:35 58.6 °F 51.8 °F 29.89 in WNW 1.6 mph 3.5 mph 78 % 0.00 in
06:45 59.2 °F 52.3 °F 29.89 in WNW 4.5 mph 8.1 mph 78 % 0.00 in
06:50 59.4 °F 51.8 °F 29.89 in WNW 2.7 mph 4.6 mph 76 % 0.00 in
06:55 59.8 °F 52.6 °F 29.89 in WNW 1.6 mph 3.5 mph 77 % 0.00 in
07:00 60.1 °F 52.9 °F 29.89 in West 2.8 mph 4.6 mph 77 % 0.00 in
07:05 60.4 °F 52.4 °F 29.89 in WNW 1.6 mph 3.5 mph 75 % 0.00 in
07:10 60.8 °F 52.8 °F 29.89 in WNW 2.5 mph 5.0 mph 75 % 0.00 in
07:15 61.2 °F 52.8 °F 29.89 in West 4.5 mph 8.1 mph 74 % 0.00 in
07:20 61.4 °F 52.3 °F 29.89 in WNW 4.1 mph 6.9 mph 72 % 0.00 in
07:25 61.8 °F 52.7 °F 29.89 in NW 2.8 mph 6.9 mph 72 % 0.00 in
07:30 62.1 °F 53.3 °F 29.89 in NNW 2.0 mph 6.9 mph 73 % 0.00 in
07:40 62.2 °F 52.7 °F 29.90 in WNW 1.3 mph 4.6 mph 71 % 0.00 in
07:45 62.2 °F 52.7 °F 29.90 in West 0.6 mph 3.5 mph 71 % 0.00 in
07:51 62.0 °F 51.7 °F 29.90 in West 2.7 mph 4.6 mph 69 % 0.00 in
07:56 61.8 °F 51.1 °F 29.90 in WNW 3.6 mph 10.4 mph 68 % 0.00 in
08:01 61.6 °F 50.9 °F 29.90 in WNW 4.5 mph 7.0 mph 68 % 0.00 in
08:06 61.6 °F 51.3 °F 29.90 in NW 1.4 mph 3.5 mph 69 % 0.00 in
08:11 61.5 °F 51.2 °F 29.91 in West 3.0 mph 6.9 mph 69 % 0.00 in
08:16 61.6 °F 51.7 °F 29.90 in North 2.6 mph 8.1 mph 70 % 0.00 in
08:21 61.6 °F 51.7 °F 29.91 in NW 1.2 mph 10.0 mph 70 % 0.00 in
08:26 61.7 °F 51.4 °F 29.90 in WNW 2.0 mph 4.0 mph 69 % 0.00 in
08:31 61.8 °F 51.9 °F 29.90 in NNW 4.9 mph 8.1 mph 70 % 0.00 in
08:36 62.0 °F 51.3 °F 29.90 in WNW 1.8 mph 4.6 mph 68 % 0.00 in
08:41 62.3 °F 51.6 °F 29.90 in WNW 4.1 mph 8.1 mph 68 % 0.00 in
08:46 62.5 °F 51.4 °F 29.90 in WNW 1.8 mph 9.2 mph 67 % 0.00 in
08:51 62.6 °F 51.5 °F 29.90 in West 3.0 mph 10.0 mph 67 % 0.00 in
08:56 62.7 °F 51.2 °F 29.90 in NNW 4.3 mph 9.2 mph 66 % 0.00 in
09:01 62.7 °F 51.2 °F 29.90 in North 2.0 mph 4.0 mph 66 % 0.00 in
09:06 62.8 °F 51.3 °F 29.90 in West 3.0 mph 9.2 mph 66 % 0.00 in
09:11 62.8 °F 50.9 °F 29.90 in WNW 2.6 mph 4.6 mph 65 % 0.00 in
09:16 62.9 °F 51.0 °F 29.90 in NW 3.2 mph 6.0 mph 65 % 0.00 in
09:22 63.0 °F 51.0 °F 29.90 in West 2.8 mph 8.0 mph 65 % 0.00 in
09:27 63.1 °F 52.0 °F 29.89 in NNW 1.6 mph 4.6 mph 67 % 0.00 in
09:32 63.3 °F 51.7 °F 29.89 in North 2.5 mph 4.6 mph 66 % 0.00 in
09:37 63.6 °F 52.0 °F 29.89 in North 1.6 mph 5.8 mph 66 % 0.00 in
09:42 64.0 °F 52.0 °F 29.89 in NNE 1.5 mph 10.4 mph 65 % 0.00 in
09:47 64.6 °F 53.8 °F 29.90 in NW 2.0 mph 4.6 mph 68 % 0.00 in
09:52 65.4 °F 53.3 °F 29.90 in WNW 2.9 mph 6.0 mph 65 % 0.00 in
09:57 66.3 °F 54.6 °F 29.90 in West 2.1 mph 4.0 mph 66 % 0.00 in
10:02 67.1 °F 54.9 °F 29.90 in West 2.2 mph 3.5 mph 65 % 0.00 in
10:07 68.1 °F 55.0 °F 29.90 in NNE 1.9 mph 6.9 mph 63 % 0.00 in
10:12 68.9 °F 52.1 °F 29.90 in NW 5.4 mph 9.2 mph 55 % 0.00 in
10:22 70.2 °F 56.1 °F 29.90 in NW 2.0 mph 8.1 mph 61 % 0.00 in
10:32 71.6 °F 55.1 °F 29.90 in NE 3.9 mph 8.1 mph 56 % 0.00 in
10:37 72.0 °F 55.9 °F 29.90 in West 4.7 mph 9.0 mph 57 % 0.00 in
10:42 72.3 °F 52.6 °F 29.90 in WNW 4.8 mph 10.0 mph 50 % 0.00 in
10:47 72.4 °F 54.8 °F 29.90 in NW 2.1 mph 6.0 mph 54 % 0.00 in
10:52 72.6 °F 57.0 °F 29.89 in NNE 2.0 mph 5.8 mph 58 % 0.00 in
10:57 72.9 °F 54.2 °F 29.89 in WNW 4.9 mph 7.0 mph 52 % 0.00 in
11:02 73.3 °F 54.1 °F 29.89 in WNW 3.8 mph 6.9 mph 51 % 0.00 in
11:08 73.7 °F 51.0 °F 29.89 in NW 7.1 mph 11.5 mph 45 % 0.00 in
11:13 74.2 °F 56.0 °F 29.89 in WNW 1.3 mph 3.0 mph 53 % 0.00 in
11:18 75.0 °F 58.2 °F 29.89 in North 1.3 mph 3.5 mph 56 % 0.00 in
11:23 75.4 °F 55.5 °F 29.90 in WNW 1.9 mph 9.0 mph 50 % 0.00 in
11:28 75.6 °F 53.9 °F 29.90 in NW 2.3 mph 8.1 mph 47 % 0.00 in
11:33 75.9 °F 56.5 °F 29.90 in NNE 3.2 mph 4.6 mph 51 % 0.00 in
11:38 75.9 °F 54.2 °F 29.90 in NNE 3.6 mph 8.1 mph 47 % 0.00 in
11:43 76.0 °F 56.0 °F 29.89 in WNW 2.6 mph 4.6 mph 50 % 0.00 in
11:48 76.3 °F 56.3 °F 29.89 in NNW 2.1 mph 4.6 mph 50 % 0.00 in
11:53 76.3 °F 56.3 °F 29.89 in NNE 3.1 mph 8.1 mph 50 % 0.00 in
11:58 76.6 °F 56.0 °F 29.89 in NW 2.0 mph 3.5 mph 49 % 0.00 in
12:03 77.0 °F 58.6 °F 29.89 in West 3.4 mph 9.2 mph 53 % 0.00 in
12:08 77.2 °F 55.4 °F 29.89 in West 2.0 mph 5.0 mph 47 % 0.00 in
12:13 77.5 °F 52.6 °F 29.89 in WNW 2.7 mph 5.0 mph 42 % 0.00 in
12:18 77.6 °F 50.7 °F 29.89 in WNW 5.5 mph 9.2 mph 39 % 0.00 in
12:23 77.6 °F 52.0 °F 29.88 in West 5.5 mph 9.2 mph 41 % 0.00 in
12:28 77.7 °F 52.1 °F 29.88 in WNW 4.7 mph 6.0 mph 41 % 0.00 in
12:33 77.9 °F 54.2 °F 29.88 in WNW 4.8 mph 7.0 mph 44 % 0.00 in
12:38 78.0 °F 50.3 °F 29.89 in WSW 6.0 mph 9.2 mph 38 % 0.00 in
12:43 78.3 °F 55.8 °F 29.88 in NW 2.5 mph 9.2 mph 46 % 0.00 in
12:48 78.7 °F 53.0 °F 29.88 in North 3.0 mph 4.0 mph 41 % 0.00 in
12:53 78.9 °F 54.5 °F 29.88 in NW 2.1 mph 8.1 mph 43 % 0.00 in
12:58 79.2 °F 55.4 °F 29.88 in NW 2.4 mph 6.0 mph 44 % 0.00 in
13:03 79.7 °F 56.5 °F 29.88 in WNW 2.4 mph 7.0 mph 45 % 0.00 in
13:08 79.9 °F 54.1 °F 29.88 in NNW 1.7 mph 3.5 mph 41 % 0.00 in
13:14 80.2 °F 52.3 °F 29.87 in SW 1.2 mph 5.0 mph 38 % 0.00 in
13:19 80.3 °F 51.7 °F 29.88 in WNW 4.3 mph 6.9 mph 37 % 0.00 in
13:24 80.2 °F 52.3 °F 29.88 in West 5.7 mph 9.2 mph 38 % 0.00 in
13:29 80.2 °F 53.0 °F 29.88 in WNW 1.8 mph 5.0 mph 39 % 0.00 in
13:34 80.4 °F 53.2 °F 29.87 in NNW 4.5 mph 8.1 mph 39 % 0.00 in
13:39 80.7 °F 57.4 °F 29.86 in NW 1.5 mph 7.0 mph 45 % 0.00 in
13:44 80.9 °F 55.0 °F 29.86 in North 2.9 mph 5.8 mph 41 % 0.00 in
13:49 81.3 °F 51.8 °F 29.86 in WNW 4.3 mph 9.2 mph 36 % 0.00 in
13:54 81.4 °F 53.4 °F 29.86 in WNW 1.7 mph 4.6 mph 38 % 0.00 in
13:59 81.4 °F 54.8 °F 29.86 in North 0.8 mph 2.3 mph 40 % 0.00 in
14:04 81.8 °F 53.0 °F 29.86 in SW 3.8 mph 6.9 mph 37 % 0.00 in
14:09 81.9 °F 53.1 °F 29.86 in NNE 3.3 mph 6.9 mph 37 % 0.00 in
14:14 81.9 °F 54.5 °F 29.86 in NW 3.8 mph 8.1 mph 39 % 0.00 in
14:19 82.1 °F 54.7 °F 29.86 in WSW 4.5 mph 8.1 mph 39 % 0.00 in
14:24 82.3 °F 52.7 °F 29.86 in NW 3.4 mph 5.8 mph 36 % 0.00 in
14:29 82.6 °F 52.2 °F 29.86 in West 4.0 mph 9.2 mph 35 % 0.00 in
14:34 82.6 °F 53.7 °F 29.86 in WSW 4.4 mph 8.1 mph 37 % 0.00 in
14:39 82.8 °F 53.9 °F 29.86 in WNW 4.0 mph 6.9 mph 37 % 0.00 in
14:44 82.9 °F 53.2 °F 29.87 in North 2.6 mph 5.8 mph 36 % 0.00 in
14:49 83.0 °F 54.8 °F 29.87 in WSW 1.5 mph 4.0 mph 38 % 0.00 in
14:54 83.2 °F 51.9 °F 29.86 in West 4.5 mph 11.5 mph 34 % 0.00 in
14:59 83.2 °F 51.9 °F 29.86 in West 1.8 mph 8.1 mph 34 % 0.00 in
15:04 83.1 °F 54.1 °F 29.87 in SW 5.1 mph 7.0 mph 37 % 0.00 in
15:10 83.3 °F 53.6 °F 29.86 in WNW 1.5 mph 2.3 mph 36 % 0.00 in
15:15 83.6 °F 53.1 °F 29.86 in WNW 2.2 mph 3.0 mph 35 % 0.00 in
15:20 83.7 °F 54.7 °F 29.86 in WNW 2.2 mph 5.8 mph 37 % 0.00 in
15:25 83.8 °F 54.7 °F 29.86 in West 4.6 mph 9.2 mph 37 % 0.00 in
15:30 83.9 °F 51.7 °F 29.86 in NW 3.9 mph 8.1 mph 33 % 0.00 in
15:35 83.9 °F 51.7 °F 29.86 in NW 3.1 mph 6.9 mph 33 % 0.00 in
15:40 83.7 °F 54.7 °F 29.85 in NNW 1.4 mph 2.3 mph 37 % 0.00 in
15:45 83.6 °F 53.8 °F 29.85 in West 1.9 mph 4.6 mph 36 % 0.00 in
15:50 83.3 °F 55.0 °F 29.85 in North 4.0 mph 9.2 mph 38 % 0.00 in
15:55 83.0 °F 51.7 °F 29.85 in NW 6.0 mph 6.9 mph 34 % 0.00 in
16:01 83.0 °F 53.3 °F 29.85 in WNW 1.5 mph 5.8 mph 36 % 0.00 in
16:06 82.9 °F 53.2 °F 29.85 in NNW 2.6 mph 8.1 mph 36 % 0.00 in
16:11 82.7 °F 52.3 °F 29.85 in NNW 2.2 mph 5.8 mph 35 % 0.00 in
16:16 82.5 °F 53.6 °F 29.85 in NW 3.9 mph 6.9 mph 37 % 0.00 in
16:21 82.3 °F 53.4 °F 29.85 in NW 4.0 mph 8.1 mph 37 % 0.00 in
16:26 82.3 °F 53.4 °F 29.85 in WNW 3.0 mph 3.5 mph 37 % 0.00 in
16:31 82.0 °F 55.3 °F 29.85 in WNW 2.2 mph 6.9 mph 40 % 0.00 in
16:41 81.7 °F 53.6 °F 29.85 in West 1.2 mph 5.8 mph 38 % 0.00 in
16:46 81.7 °F 54.3 °F 29.85 in NNW 2.2 mph 8.1 mph 39 % 0.00 in
16:52 81.5 °F 53.4 °F 29.85 in NNW 0.4 mph 3.5 mph 38 % 0.00 in
16:57 81.3 °F 54.0 °F 29.85 in NNW 1.0 mph 2.3 mph 39 % 0.00 in
17:07 80.8 °F 53.5 °F 29.85 in ENE 1.1 mph 4.6 mph 39 % 0.00 in
17:12 80.4 °F 53.9 °F 29.85 in East 0.4 mph 1.2 mph 40 % 0.00 in
17:17 79.9 °F 54.8 °F 29.85 in NNE 2.2 mph 3.5 mph 42 % 0.00 in
17:22 79.4 °F 55.0 °F 29.85 in North 4.6 mph 7.0 mph 43 % 0.00 in
17:27 79.0 °F 54.6 °F 29.84 in NE 0.7 mph 3.5 mph 43 % 0.00 in
17:32 78.5 °F 52.2 °F 29.85 in NW 3.7 mph 5.0 mph 40 % 0.00 in
17:37 78.2 °F 52.6 °F 29.84 in NW 3.5 mph 5.0 mph 41 % 0.00 in
17:43 78.1 °F 51.8 °F 29.85 in NNW 1.6 mph 4.6 mph 40 % 0.00 in
17:48 78.0 °F 52.4 °F 29.85 in WNW 0.7 mph 3.5 mph 41 % 0.00 in
17:53 77.9 °F 53.0 °F 29.85 in North 0.8 mph 5.8 mph 42 % 0.00 in
17:58 77.6 °F 52.7 °F 29.85 in NW 5.6 mph 8.1 mph 42 % 0.00 in
18:03 77.4 °F 53.1 °F 29.85 in North 3.6 mph 5.8 mph 43 % 0.00 in
18:08 77.2 °F 52.3 °F 29.85 in WNW 4.5 mph 6.9 mph 42 % 0.00 in
18:13 77.0 °F 52.1 °F 29.86 in WNW 3.7 mph 5.8 mph 42 % 0.00 in
18:18 76.9 °F 53.3 °F 29.86 in WNW 2.1 mph 3.5 mph 44 % 0.00 in
18:23 76.9 °F 53.9 °F 29.85 in NW 0.9 mph 2.3 mph 45 % 0.00 in
18:28 76.7 °F 53.1 °F 29.86 in NNW 0.5 mph 1.0 mph 44 % 0.00 in
18:34 76.5 °F 52.3 °F 29.86 in WNW 2.2 mph 5.0 mph 43 % 0.00 in
18:39 76.5 °F 51.7 °F 29.86 in WNW 2.5 mph 6.0 mph 42 % 0.00 in
18:44 76.4 °F 52.2 °F 29.86 in WNW 0.9 mph 9.2 mph 43 % 0.00 in
18:49 76.3 °F 51.5 °F 29.86 in WNW 1.3 mph 6.0 mph 42 % 0.00 in
18:54 76.2 °F 52.1 °F 29.86 in NW 0.8 mph 3.0 mph 43 % 0.00 in
18:59 76.1 °F 52.0 °F 29.86 in NNE 1.5 mph 4.0 mph 43 % 0.00 in
19:04 76.1 °F 52.0 °F 29.87 in NNE 0.8 mph 3.5 mph 43 % 0.00 in
19:09 75.8 °F 51.7 °F 29.86 in NNE 1.7 mph 4.6 mph 43 % 0.00 in
19:14 75.7 °F 52.2 °F 29.86 in NW 0.6 mph 3.5 mph 44 % 0.00 in
19:19 75.7 °F 52.8 °F 29.87 in NW 0.4 mph 2.3 mph 45 % 0.00 in
19:25 75.6 °F 53.9 °F 29.87 in NW 0.1 mph 1.2 mph 47 % 0.00 in
19:30 75.5 °F 54.4 °F 29.87 in NW 0.9 mph 2.3 mph 48 % 0.00 in
19:35 75.4 °F 54.3 °F 29.87 in Calm     48 % 0.00 in
19:40 75.3 °F 53.1 °F 29.87 in NW 0.1 mph 1.2 mph 46 % 0.00 in
19:45 75.1 °F 53.5 °F 29.88 in Calm     47 % 0.00 in
19:50 74.9 °F 54.4 °F 29.88 in Calm     49 % 0.00 in
19:55 74.7 °F 54.8 °F 29.88 in Calm     50 % 0.00 in
20:00 74.4 °F 55.1 °F 29.88 in Calm     51 % 0.00 in
20:05 74.0 °F 54.7 °F 29.88 in Calm     51 % 0.00 in
20:10 73.5 °F 54.8 °F 29.88 in Calm     52 % 0.00 in
20:16 73.1 °F 54.9 °F 29.88 in Calm     53 % 0.00 in
20:21 72.6 °F 55.0 °F 29.88 in Calm     54 % 0.00 in
20:26 72.1 °F 55.0 °F 29.88 in Calm     55 % 0.00 in
20:31 71.6 °F 55.1 °F 29.88 in Calm     56 % 0.00 in
20:36 71.0 °F 55.0 °F 29.88 in Calm     57 % 0.00 in
20:41 70.6 °F 55.1 °F 29.88 in Calm     58 % 0.00 in
20:46 70.1 °F 54.6 °F 29.88 in Calm     58 % 0.00 in
20:51 69.7 °F 54.7 °F 29.88 in NW 0.8 mph 1.2 mph 59 % 0.00 in
20:56 69.3 °F 54.4 °F 29.89 in Calm   1.2 mph 59 % 0.00 in
21:01 69.0 °F 54.1 °F 29.89 in Calm     59 % 0.00 in
21:07 68.6 °F 53.7 °F 29.89 in Calm     59 % 0.00 in
21:12 68.2 °F 53.3 °F 29.89 in Calm   1.2 mph 59 % 0.00 in
21:17 67.7 °F 53.3 °F 29.89 in Calm     60 % 0.00 in
21:22 67.3 °F 52.9 °F 29.89 in Calm     60 % 0.00 in
21:27 67.0 °F 52.7 °F 29.90 in NW 0.6 mph 1.2 mph 60 % 0.00 in
21:32 66.7 °F 52.8 °F 29.90 in Calm   1.2 mph 61 % 0.00 in
21:37 66.5 °F 53.1 °F 29.90 in Calm   1.2 mph 62 % 0.00 in
21:42 66.2 °F 52.8 °F 29.90 in Calm     62 % 0.00 in
21:47 66.0 °F 53.0 °F 29.90 in Calm     63 % 0.00 in
21:52 65.7 °F 54.4 °F 29.91 in Calm     67 % 0.00 in
21:58 65.4 °F 54.2 °F 29.91 in Calm     67 % 0.00 in
22:03 65.1 °F 53.9 °F 29.91 in Calm     67 % 0.00 in
22:08 64.9 °F 53.7 °F 29.92 in Calm     67 % 0.00 in
22:13 64.8 °F 53.6 °F 29.92 in NW 0.3 mph 1.2 mph 67 % 0.00 in
22:18 64.6 °F 53.4 °F 29.92 in Calm   1.2 mph 67 % 0.00 in
22:23 64.4 °F 53.6 °F 29.91 in Calm     68 % 0.00 in
22:28 64.3 °F 53.9 °F 29.92 in NW 0.6 mph 1.2 mph 69 % 0.00 in
22:33 64.2 °F 53.8 °F 29.91 in NW 1.0 mph 2.3 mph 69 % 0.00 in
22:38 64.0 °F 54.0 °F 29.91 in NW 0.5 mph 2.3 mph 70 % 0.00 in
22:43 64.0 °F 54.0 °F 29.92 in NW 0.5 mph 2.3 mph 70 % 0.00 in
22:49 63.8 °F 53.8 °F 29.92 in NW 0.6 mph 1.2 mph 70 % 0.00 in
22:54 63.7 °F 53.7 °F 29.92 in NW 0.3 mph 1.2 mph 70 % 0.00 in
22:59 63.6 °F 53.6 °F 29.92 in NW 0.4 mph 1.2 mph 70 % 0.00 in
23:04 63.5 °F 53.9 °F 29.92 in NW 0.8 mph 2.0 mph 71 % 0.00 in
23:09 63.4 °F 53.8 °F 29.92 in NW 0.2 mph 1.2 mph 71 % 0.00 in
23:14 63.3 °F 53.7 °F 29.92 in Calm     71 % 0.00 in
23:19 63.1 °F 53.5 °F 29.92 in Calm     71 % 0.00 in
23:24 63.0 °F 53.4 °F 29.92 in NW 0.6 mph 1.2 mph 71 % 0.00 in
23:29 62.8 °F 53.6 °F 29.92 in NW 0.4 mph 1.2 mph 72 % 0.00 in
23:34 62.7 °F 53.5 °F 29.92 in NW 0.4 mph 1.2 mph 72 % 0.00 in
23:40 62.5 °F 53.3 °F 29.92 in Calm   1.2 mph 72 % 0.00 in
23:45 62.4 °F 53.3 °F 29.93 in NW 0.4 mph 1.2 mph 72 % 0.00 in
23:50 62.2 °F 53.1 °F 29.93 in NW 0.2 mph 1.0 mph 72 % 0.00 in
23:55 62.1 °F 53.3 °F 29.93 in NW 0.2 mph 1.2 mph 73 % 0.00 in
Crab Meadow Weather
Compliments of Weather Underground - 3 mb

Script developed by  Jim McMurry - jmcmurry@mwt.net Adapted for the template by  Wim van der Kuil - Leuven-Template.eu

Lightning: At any given moment, there are about 1,800 thunderstorms happening around the world. Approximately 100 lightning bolts strike the earth every second.